Aeroporto :
LOGIN :

Iscrizione | Disclaimer

   EN    FR    IT 

 










Sommario :    VFR   VFR Marginale   IFR   IFR Intensivo   IFR Molto Intensivo
Visibilità : 
Base nubi : 
>= 8 km
>= 3000ft
5 / 8 km
1000 / 3000 ft
1500m / 5 km
500 / 1000 ft
800 / 1500m
200 / 500 ft
< 800m
< 200 ft
Simboli :   Temporali  Nebbia  Neve Forte  Precipitazioni Forti  Vento > 20 kt
SIGMETs :   Varie  Temporali  Ghiacco  Turbolenza  Onda orograficha  Ceneri Vulcaniche






- Altitudine del aeroporto : 84 ft


LFBC - Cazaux

ULTIMO METAR :
  • 280500Z AUTO 36002KT CAVOK 11/10 Q1023 NOSIG

METARs OBSOLETI :
  • 280430Z AUTO 03003KT 350V070 CAVOK 12/11 Q1023
  • 280400Z AUTO VRB02KT CAVOK 12/11 Q1023
  • 280330Z AUTO VRB02KT CAVOK 11/10 Q1023
  • 280300Z AUTO VRB02KT CAVOK 12/11 Q1023
  • 280230Z AUTO 07004KT CAVOK 12/11 Q1023

TAF AMD TAF LFBC
Valido dal 28 a 04 ore il 29 a 03 ore UTC


280420Z 2804/2903 08005KT CAVOK
BECMG 2814/2816 32010KT



MetMap, La meteo Aeronautica in un colpo d'occhio ! - Copyright ORBIFLY Dicembre 2007 - Disclaimer

ORBIFLY MET'MAP TEAM :

Programmazione e sviluppo : Alexandra Zaïnal
Concezione : Baudouin d'Aumeries
Aiuto per la programmazione : Marc-Olivier Méhu
Supporto tecnico e logistico : Manuel Goepfert
Aiuto per la traduzione : Arnaldo La Scala

Contatto : metmap@orbifly.com




FONTI E CREDITI :

   NOAA